Terminal Aerodrome Forecast
Issued by NWS

Home | Current Version | Previous Version | Text Only | Print | Product List | Glossary On
Versions: 1 2 3 4 5 6 7 8 9 10 11 12 13 14 15 16 17 18 19 20 21 22 23 24 25
000
FTUS45 KBOU 180816 AAA
TAFAPA
TAF AMD
KAPA 180816Z 1808/1906 18011KT P6SM SCT220
     FM180900 21013KT P6SM FEW220
     FM181700 19007KT P6SM FEW140 FEW220
     FM182200 24012KT P6SM FEW140 SCT220
     FM190300 20010KT P6SM SCT140 BKN200=

USA.gov is the U.S. government's official web portal to all federal, state and local government web resources and services.